Lathrup Village, MI

10:25 AM EDT on March 26, 2017 (GMT -0400)
Fritz -- Metamora Green | | Change Station

Elev 709 ft 42.52 °N, 83.27 °W | Updated 13 seconds ago

Overcast
Overcast
42.9 °F
Feels Like 43 °F
N
1.0
Wind Variable Wind from SE
Gusts 6.0 mph

Today
High -- | Low -- °F
--% Chance of Precip.
Yesterday
High -- | Low -- °F
Precip. -- in
Pressure 30.03 in
Visibility 10.0 miles
Clouds Mostly Cloudy 1000 ft
Overcast 7000 ft
Windchill 43 °F
Dew Point 40 °F
Humidity 88%
Rainfall 0.00 in
Snow Depth Not available.
7:25 AM 7:52 PM
Waning Crescent, 3% visible
METAR KVLL 261415Z AUTO 07005KT 10SM BKN010 OVC070 06/03 A3003 RMK AO2 T00550028
Pressure 30.03 in
Visibility 10.0 miles
Clouds Mostly Cloudy 1000 ft
Overcast 7000 ft
Windchill 43 °F
Dew Point 40 °F
Humidity 88%
Rainfall 0.00 in
Snow Depth Not available.
7:25 AM 7:52 PM
Waning Crescent, 3% visible
METAR KVLL 261415Z AUTO 07005KT 10SM BKN010 OVC070 06/03 A3003 RMK AO2 T00550028

Get Severe Weather Alerts

Thanks for signing up!

Be on the lookout for a verification email in your inbox.

You'll start receiving the daily forecast at 8 AM.

×

10-Day Weather Forecast

Almanac

Astronomy

Mar. 26, 2017 Rise Set
Actual Time
Civil Twilight
Nautical Twilight
Astronomical Twilight
Moon
Length of Visible Light
Length of Day
Tomorrow will be .
, % of the Moon is Illuminated

Today's Extremes

State Highs State Lows

Community

WunderPhotos

Upload Photos

1,962,540 photos uploaded!

WunderBlog® & News

Nearby

Air Quality

  Air Quality AQ Index Pollutant
Not available.

Snow Depth

Station Depth Elevation

Earthquake Activity

City Distance Mag. Time & Date
Minimum magnitude displayed is 2.5.

Earthquake Activity

City Distance Mag. Time & Date
Minimum magnitude displayed is 2.5.

Coastal Water Temperatures

Place Temperature

Stations

Nearby Weather Stations

Station Location Temp. Windchill Dew Point Humidity Wind Precip. Elev Updated Type
                   

Watches & Warnings

There are currently no watches in effect.